createdAt,value
2023-03-22T00:01:49.471Z,10.21
2023-03-22T00:04:19.194Z,10.19
2023-03-22T00:06:50.162Z,10.18
2023-03-22T00:09:18.093Z,10.19
2023-03-22T00:11:50.387Z,10.21
2023-03-22T00:14:18.171Z,10.25
2023-03-22T00:16:47.242Z,10.26
2023-03-22T00:19:18.699Z,10.30
2023-03-22T00:21:47.247Z,10.34
2023-03-22T00:24:20.625Z,10.39
2023-03-22T00:26:52.455Z,10.43
2023-03-22T00:29:23.643Z,10.46
2023-03-22T00:31:57.667Z,10.42
2023-03-22T00:34:32.188Z,10.43
2023-03-22T00:37:01.997Z,10.41
2023-03-22T00:39:31.962Z,10.39
2023-03-22T00:42:01.738Z,10.38
2023-03-22T00:44:55.254Z,10.37
2023-03-22T00:47:36.007Z,10.34
2023-03-22T00:50:13.404Z,10.38
2023-03-22T00:52:46.916Z,10.39
2023-03-22T00:55:19.734Z,10.41
2023-03-22T00:57:48.542Z,10.49
2023-03-22T01:00:20.266Z,10.59
2023-03-22T01:02:48.858Z,10.69
2023-03-22T01:05:25.661Z,10.74
2023-03-22T01:07:56.388Z,10.69
2023-03-22T01:10:34.522Z,10.64
2023-03-22T01:13:04.415Z,10.61
2023-03-22T01:15:34.306Z,10.58
2023-03-22T01:18:05.494Z,10.54
2023-03-22T01:20:46.806Z,10.50
2023-03-22T01:23:18.719Z,10.45
2023-03-22T01:25:50.292Z,10.40
2023-03-22T01:28:25.206Z,10.38
2023-03-22T01:31:01.633Z,10.44
2023-03-22T01:33:31.265Z,10.50
2023-03-22T01:35:58.960Z,10.56
2023-03-22T01:38:31.660Z,10.60
2023-03-22T01:41:03.568Z,10.64
2023-03-22T01:43:37.600Z,10.59
2023-03-22T01:46:06.429Z,10.54
2023-03-22T01:48:45.427Z,10.52
2023-03-22T01:51:19.494Z,10.50
2023-03-22T01:54:18.489Z,10.47
2023-03-22T01:56:50.478Z,10.44
2023-03-22T01:59:27.354Z,10.42
2023-03-22T02:02:07.713Z,10.40
2023-03-22T02:04:41.067Z,10.37
2023-03-22T02:07:15.014Z,10.36
2023-03-22T02:09:47.626Z,10.40
2023-03-22T02:12:18.641Z,10.40
2023-03-22T02:15:12.064Z,10.39
2023-03-22T02:18:11.880Z,10.36
2023-03-22T02:21:02.649Z,10.35
2023-03-22T02:23:54.888Z,10.36
2023-03-22T02:26:41.057Z,10.37
2023-03-22T02:29:25.873Z,10.37
2023-03-22T02:32:16.062Z,10.36
2023-03-22T02:35:05.624Z,10.33
2023-03-22T02:38:03.234Z,10.31
2023-03-22T02:40:45.337Z,10.30
2023-03-22T02:43:38.060Z,10.25
2023-03-22T02:46:12.851Z,10.23
2023-03-22T02:49:27.090Z,10.22
2023-03-22T02:51:59.874Z,10.21
2023-03-22T02:54:44.501Z,10.19
2023-03-22T02:57:20.649Z,10.17
2023-03-22T02:59:49.422Z,10.16
2023-03-22T03:02:17.993Z,10.18
2023-03-22T03:04:48.759Z,10.16
2023-03-22T03:07:21.347Z,10.16
2023-03-22T03:09:50.287Z,10.17
2023-03-22T03:12:25.787Z,10.17
2023-03-22T03:14:56.908Z,10.17
2023-03-22T03:17:57.817Z,10.16
2023-03-22T03:21:09.306Z,10.15
2023-03-22T03:23:53.771Z,10.14
2023-03-22T03:26:30.765Z,10.14
2023-03-22T03:29:42.211Z,10.18
2023-03-22T03:32:19.649Z,10.17
2023-03-22T03:34:52.549Z,10.16
2023-03-22T03:37:23.925Z,10.17
2023-03-22T03:40:04.883Z,10.27
2023-03-22T03:42:33.203Z,10.29
2023-03-22T03:45:00.439Z,10.27
2023-03-22T03:47:30.635Z,10.23
2023-03-22T03:49:59.047Z,10.17
2023-03-22T03:52:32.574Z,10.10
2023-03-22T03:55:02.725Z,10.06
2023-03-22T03:57:38.081Z,9.99
2023-03-22T04:00:09.749Z,9.93
2023-03-22T04:02:56.739Z,9.86
2023-03-22T04:05:40.964Z,9.80
2023-03-22T04:08:10.578Z,9.75
2023-03-22T04:10:40.565Z,9.70
2023-03-22T04:13:13.334Z,9.65
2023-03-22T04:15:42.224Z,9.59
2023-03-22T04:18:19.255Z,9.57
2023-03-22T04:20:49.632Z,9.54
2023-03-22T04:23:27.852Z,9.53
2023-03-22T04:25:59.693Z,9.57
2023-03-22T04:28:37.015Z,9.61
2023-03-22T04:31:09.436Z,9.62
2023-03-22T04:34:05.070Z,9.66
2023-03-22T04:37:08.317Z,9.66
2023-03-22T04:39:50.904Z,9.64
2023-03-22T04:42:35.754Z,9.64
2023-03-22T04:45:13.104Z,9.64
2023-03-22T04:47:42.947Z,9.65
2023-03-22T04:50:12.725Z,9.68
2023-03-22T04:52:50.897Z,9.72
2023-03-22T04:55:21.953Z,9.76
2023-03-22T04:57:54.160Z,9.81
2023-03-22T05:00:29.595Z,9.87
2023-03-22T05:02:58.998Z,10.09
2023-03-22T05:05:55.451Z,10.17
2023-03-22T05:08:25.919Z,10.21
2023-03-22T05:10:55.581Z,10.28
2023-03-22T05:13:26.865Z,10.25
2023-03-22T05:16:06.797Z,10.21
2023-03-22T05:18:44.886Z,10.20
2023-03-22T05:21:15.107Z,10.14
2023-03-22T05:23:51.403Z,10.11
2023-03-22T05:26:25.730Z,10.12
2023-03-22T05:28:57.869Z,10.18
2023-03-22T05:31:41.831Z,10.20
2023-03-22T05:34:14.820Z,10.26
2023-03-22T05:36:45.979Z,10.31
2023-03-22T05:39:30.246Z,10.34
2023-03-22T05:42:01.163Z,10.34
2023-03-22T05:44:28.609Z,10.29
2023-03-22T05:47:08.859Z,10.24
2023-03-22T05:49:58.095Z,10.20
2023-03-22T05:52:27.331Z,10.18
2023-03-22T05:55:17.143Z,10.27
2023-03-22T05:57:47.259Z,10.30
2023-03-22T06:00:19.937Z,10.33
2023-03-22T06:03:21.222Z,10.36
2023-03-22T06:06:02.041Z,10.40
2023-03-22T06:08:39.924Z,10.46
2023-03-22T06:11:13.713Z,10.51
2023-03-22T06:13:42.583Z,10.52
2023-03-22T06:16:12.032Z,10.55
2023-03-22T06:18:41.642Z,10.65
2023-03-22T06:21:17.384Z,10.74
2023-03-22T06:23:47.213Z,10.77
2023-03-22T06:26:19.452Z,10.77
2023-03-22T06:28:56.945Z,10.78
2023-03-22T06:31:26.966Z,10.83
2023-03-22T06:34:01.239Z,10.92
2023-03-22T06:36:46.652Z,10.98
2023-03-22T06:39:26.444Z,11.05
2023-03-22T06:41:55.372Z,11.12
2023-03-22T06:44:28.966Z,11.17
2023-03-22T06:47:11.339Z,11.20
2023-03-22T06:49:47.965Z,11.19
2023-03-22T06:52:27.369Z,11.11
2023-03-22T06:55:01.571Z,11.03
2023-03-22T06:57:38.513Z,10.94
2023-03-22T07:00:10.633Z,10.89
2023-03-22T07:02:41.629Z,10.88
2023-03-22T07:05:41.051Z,10.91
2023-03-22T07:08:10.878Z,11.01
2023-03-22T07:10:50.932Z,11.10
2023-03-22T07:13:21.957Z,11.19
2023-03-22T07:15:51.923Z,11.27
2023-03-22T07:18:41.447Z,11.39
2023-03-22T07:21:15.256Z,11.47
2023-03-22T07:23:49.856Z,11.48
2023-03-22T07:26:20.190Z,11.52
2023-03-22T07:28:54.040Z,11.59
2023-03-22T07:31:46.342Z,11.67
2023-03-22T07:34:27.179Z,11.76
2023-03-22T07:37:17.232Z,11.81
2023-03-22T07:39:58.152Z,11.83
2023-03-22T07:42:30.849Z,11.91
2023-03-22T07:45:22.976Z,12.10
2023-03-22T07:48:35.995Z,12.26
2023-03-22T07:51:40.158Z,12.40
2023-03-22T07:54:12.643Z,12.53
2023-03-22T07:56:45.172Z,12.61
2023-03-22T07:59:20.543Z,12.60
2023-03-22T08:01:53.249Z,12.67
2023-03-22T08:04:31.448Z,12.80
2023-03-22T08:07:14.146Z,12.90
2023-03-22T08:09:49.211Z,12.96
2023-03-22T08:12:23.272Z,12.92
2023-03-22T08:15:23.429Z,12.91
2023-03-22T08:18:12.119Z,12.89
2023-03-22T08:20:43.968Z,12.92
2023-03-22T08:23:40.486Z,12.93
2023-03-22T08:26:50.143Z,12.91
2023-03-22T08:29:41.102Z,12.93
2023-03-22T08:32:17.550Z,13.00
2023-03-22T08:34:49.158Z,13.10
2023-03-22T08:37:26.947Z,13.21
2023-03-22T08:39:56.845Z,13.30
2023-03-22T08:42:38.612Z,13.37
2023-03-22T08:45:12.613Z,13.47
2023-03-22T08:47:52.320Z,13.64
2023-03-22T08:50:24.294Z,13.76
2023-03-22T08:53:02.956Z,13.83
2023-03-22T08:55:44.357Z,13.78
2023-03-22T08:58:26.443Z,13.73
2023-03-22T09:01:26.510Z,13.75
2023-03-22T09:04:20.199Z,13.80
2023-03-22T09:06:55.523Z,13.86
2023-03-22T09:09:26.433Z,13.94
2023-03-22T09:11:54.600Z,13.98
2023-03-22T09:14:26.462Z,14.00
2023-03-22T09:17:00.800Z,14.07
2023-03-22T09:19:29.414Z,14.19
2023-03-22T09:21:58.173Z,14.30
2023-03-22T09:24:42.186Z,14.37
2023-03-22T09:27:12.396Z,14.45
2023-03-22T09:29:41.842Z,14.47
2023-03-22T09:32:17.500Z,14.48
2023-03-22T09:34:55.071Z,14.54
2023-03-22T09:37:30.377Z,14.52
2023-03-22T09:40:00.501Z,14.51
2023-03-22T09:42:42.554Z,14.55
2023-03-22T09:45:17.863Z,14.57
2023-03-22T09:47:50.715Z,14.63
2023-03-22T09:50:32.362Z,14.72
2023-03-22T09:53:02.701Z,14.76
2023-03-22T09:55:39.072Z,14.73
2023-03-22T09:58:25.890Z,14.77
2023-03-22T10:01:05.859Z,14.84
2023-03-22T10:04:03.571Z,14.95
2023-03-22T10:07:12.908Z,14.94
2023-03-22T10:10:17.920Z,14.87
2023-03-22T10:13:00.503Z,14.79
2023-03-22T10:15:38.894Z,14.75
2023-03-22T10:18:09.491Z,14.77
2023-03-22T10:21:11.510Z,14.79
2023-03-22T10:23:47.214Z,14.82
2023-03-22T10:27:43.435Z,14.97
2023-03-22T10:33:14.012Z,15.06
2023-03-22T10:35:53.225Z,15.34
2023-03-22T10:38:27.211Z,15.39
2023-03-22T10:41:06.351Z,15.36
2023-03-22T10:43:41.061Z,15.33
2023-03-22T10:46:17.308Z,15.38
2023-03-22T10:48:49.136Z,15.52
2023-03-22T10:51:36.538Z,15.67
2023-03-22T10:54:12.051Z,15.75
2023-03-22T10:56:41.528Z,15.83
2023-03-22T10:59:53.155Z,15.92
2023-03-22T11:02:31.318Z,16.05
2023-03-22T11:05:03.062Z,16.12
2023-03-22T11:07:43.715Z,16.09
2023-03-22T11:10:15.679Z,16.01
2023-03-22T11:13:10.857Z,16.00
2023-03-22T11:15:49.558Z,16.04
2023-03-22T11:18:20.731Z,16.09
2023-03-22T11:20:58.348Z,16.18
2023-03-22T11:23:32.082Z,16.08
2023-03-22T11:26:08.181Z,15.96
2023-03-22T11:34:48.259Z,16.36
2023-03-22T11:37:19.671Z,16.43
2023-03-22T11:40:02.345Z,16.49
2023-03-22T11:42:37.099Z,16.50
2023-03-22T11:45:12.417Z,16.43
2023-03-22T11:47:54.830Z,16.25
2023-03-22T11:50:33.308Z,16.08
2023-03-22T11:53:07.552Z,15.95
2023-03-22T11:55:40.387Z,15.88
2023-03-22T11:58:39.368Z,15.79
2023-03-22T12:01:13.117Z,15.70
2023-03-22T12:03:44.129Z,15.64
2023-03-22T12:06:21.918Z,15.60
2023-03-22T12:09:07.107Z,15.57
2023-03-22T12:11:53.434Z,15.58
2023-03-22T12:14:54.551Z,15.60
2023-03-22T12:17:36.380Z,15.62
2023-03-22T12:20:51.524Z,15.57
2023-03-22T12:23:51.947Z,15.54
2023-03-22T12:26:30.382Z,15.61
2023-03-22T12:29:06.802Z,15.69
2023-03-22T12:31:52.859Z,15.72
2023-03-22T12:34:32.463Z,15.71
2023-03-22T12:37:10.967Z,15.66
2023-03-22T12:40:01.223Z,15.72
2023-03-22T12:43:08.019Z,15.75
2023-03-22T12:45:53.383Z,15.81
2023-03-22T12:48:35.628Z,15.86
2023-03-22T12:51:13.904Z,15.92
2023-03-22T12:53:53.917Z,15.93
2023-03-22T12:56:44.062Z,15.95
2023-03-22T12:59:29.042Z,16.03
2023-03-22T13:02:10.209Z,16.10
2023-03-22T13:04:53.836Z,16.20
2023-03-22T13:07:36.114Z,16.31
2023-03-22T13:10:32.700Z,16.43
2023-03-22T13:13:24.549Z,16.60
2023-03-22T13:15:59.873Z,16.78
2023-03-22T13:18:54.257Z,16.96
2023-03-22T13:21:29.886Z,17.10
2023-03-22T13:24:10.607Z,17.15
2023-03-22T13:27:20.194Z,17.09
2023-03-22T13:29:54.304Z,16.94
2023-03-22T13:32:33.571Z,16.82
2023-03-22T13:35:23.949Z,16.70
2023-03-22T13:38:29.206Z,16.64
2023-03-22T13:41:28.287Z,16.65
2023-03-22T13:44:20.513Z,16.69
2023-03-22T13:47:02.010Z,16.74
2023-03-22T13:49:55.213Z,16.78
2023-03-22T13:52:33.717Z,16.87
2023-03-22T13:55:04.905Z,16.94
2023-03-22T13:57:50.352Z,16.99
2023-03-22T14:00:41.558Z,17.00
2023-03-22T14:03:23.296Z,16.95
2023-03-22T14:06:01.009Z,16.88
2023-03-22T14:08:40.233Z,16.80
2023-03-22T14:11:46.519Z,16.80
2023-03-22T14:14:29.125Z,16.75
2023-03-22T14:17:30.039Z,16.67
2023-03-22T14:20:00.178Z,16.64
